sensor_id;sensor_type;location;lat;lon;timestamp;P1;durP1;ratioP1;P2;durP2;ratioP2
7517;SDS011;3800;48.922;9.444;2023-02-15T00:00:02;25.10;;;18.50;;
7517;SDS011;3800;48.922;9.444;2023-02-15T00:02:29;26.03;;;18.80;;
7517;SDS011;3800;48.922;9.444;2023-02-15T00:04:57;24.80;;;19.20;;
7517;SDS011;3800;48.922;9.444;2023-02-15T00:07:25;30.17;;;22.93;;
7517;SDS011;3800;48.922;9.444;2023-02-15T00:09:53;28.33;;;21.83;;
7517;SDS011;3800;48.922;9.444;2023-02-15T00:12:21;33.80;;;23.13;;
7517;SDS011;3800;48.922;9.444;2023-02-15T00:14:50;30.43;;;21.90;;
7517;SDS011;3800;48.922;9.444;2023-02-15T00:17:17;33.87;;;23.03;;
7517;SDS011;3800;48.922;9.444;2023-02-15T00:19:45;28.27;;;21.67;;
7517;SDS011;3800;48.922;9.444;2023-02-15T00:22:13;31.17;;;21.13;;
7517;SDS011;3800;48.922;9.444;2023-02-15T00:24:41;30.43;;;21.83;;
7517;SDS011;3800;48.922;9.444;2023-02-15T00:27:08;34.03;;;22.27;;
7517;SDS011;3800;48.922;9.444;2023-02-15T00:29:36;27.50;;;21.80;;
7517;SDS011;3800;48.922;9.444;2023-02-15T00:32:06;26.70;;;20.77;;
7517;SDS011;3800;48.922;9.444;2023-02-15T00:34:34;26.53;;;20.53;;
7517;SDS011;3800;48.922;9.444;2023-02-15T00:37:01;27.90;;;20.67;;
7517;SDS011;3800;48.922;9.444;2023-02-15T00:39:30;29.77;;;22.60;;
7517;SDS011;3800;48.922;9.444;2023-02-15T00:41:58;29.40;;;20.57;;
7517;SDS011;3800;48.922;9.444;2023-02-15T00:44:25;30.70;;;21.03;;
7517;SDS011;3800;48.922;9.444;2023-02-15T00:46:54;25.93;;;19.67;;
7517;SDS011;3800;48.922;9.444;2023-02-15T00:49:23;28.60;;;21.23;;
7517;SDS011;3800;48.922;9.444;2023-02-15T00:51:51;26.27;;;20.00;;
7517;SDS011;3800;48.922;9.444;2023-02-15T00:54:20;28.60;;;20.33;;
7517;SDS011;3800;48.922;9.444;2023-02-15T00:56:49;23.70;;;18.17;;
7517;SDS011;3800;48.922;9.444;2023-02-15T00:59:17;25.53;;;18.27;;
7517;SDS011;3800;48.922;9.444;2023-02-15T01:01:46;21.20;;;17.80;;
7517;SDS011;3800;48.922;9.444;2023-02-15T01:04:13;22.50;;;17.83;;
7517;SDS011;3800;48.922;9.444;2023-02-15T01:06:42;22.07;;;18.27;;
7517;SDS011;3800;48.922;9.444;2023-02-15T01:09:09;23.03;;;17.87;;
7517;SDS011;3800;48.922;9.444;2023-02-15T01:11:37;21.47;;;16.93;;
7517;SDS011;3800;48.922;9.444;2023-02-15T01:14:05;26.87;;;17.60;;
7517;SDS011;3800;48.922;9.444;2023-02-15T01:16:32;20.43;;;16.93;;
7517;SDS011;3800;48.922;9.444;2023-02-15T01:19:00;22.63;;;17.43;;
7517;SDS011;3800;48.922;9.444;2023-02-15T01:21:28;20.97;;;17.37;;
7517;SDS011;3800;48.922;9.444;2023-02-15T01:23:56;20.83;;;16.93;;
7517;SDS011;3800;48.922;9.444;2023-02-15T01:26:24;21.87;;;16.40;;
7517;SDS011;3800;48.922;9.444;2023-02-15T01:28:51;19.53;;;16.30;;
7517;SDS011;3800;48.922;9.444;2023-02-15T01:31:20;22.27;;;17.00;;
7517;SDS011;3800;48.922;9.444;2023-02-15T01:33:49;22.17;;;16.43;;
7517;SDS011;3800;48.922;9.444;2023-02-15T01:36:16;21.27;;;16.80;;
7517;SDS011;3800;48.922;9.444;2023-02-15T01:38:45;19.43;;;16.00;;
7517;SDS011;3800;48.922;9.444;2023-02-15T01:41:13;18.97;;;15.93;;
7517;SDS011;3800;48.922;9.444;2023-02-15T01:43:51;20.30;;;16.83;;
7517;SDS011;3800;48.922;9.444;2023-02-15T01:46:18;18.00;;;15.60;;
7517;SDS011;3800;48.922;9.444;2023-02-15T01:48:47;19.13;;;15.90;;
7517;SDS011;3800;48.922;9.444;2023-02-15T01:51:15;18.37;;;16.10;;
7517;SDS011;3800;48.922;9.444;2023-02-15T01:53:43;18.03;;;15.33;;
7517;SDS011;3800;48.922;9.444;2023-02-15T01:56:15;18.03;;;15.20;;
7517;SDS011;3800;48.922;9.444;2023-02-15T01:58:42;19.43;;;16.10;;
7517;SDS011;3800;48.922;9.444;2023-02-15T02:01:10;19.30;;;16.00;;
7517;SDS011;3800;48.922;9.444;2023-02-15T02:03:43;18.17;;;15.27;;
7517;SDS011;3800;48.922;9.444;2023-02-15T02:06:19;19.20;;;16.00;;
7517;SDS011;3800;48.922;9.444;2023-02-15T02:08:47;19.37;;;15.73;;
7517;SDS011;3800;48.922;9.444;2023-02-15T02:11:15;20.23;;;14.77;;
7517;SDS011;3800;48.922;9.444;2023-02-15T02:13:43;17.47;;;15.07;;
7517;SDS011;3800;48.922;9.444;2023-02-15T02:16:16;18.90;;;15.13;;
7517;SDS011;3800;48.922;9.444;2023-02-15T02:19:10;20.80;;;16.47;;
7517;SDS011;3800;48.922;9.444;2023-02-15T02:21:40;20.37;;;16.23;;
7517;SDS011;3800;48.922;9.444;2023-02-15T02:32:45;18.80;;;14.70;;
7517;SDS011;3800;48.922;9.444;2023-02-15T02:35:11;16.57;;;14.10;;
7517;SDS011;3800;48.922;9.444;2023-02-15T02:37:44;18.13;;;14.60;;
7517;SDS011;3800;48.922;9.444;2023-02-15T02:40:16;18.93;;;14.73;;
7517;SDS011;3800;48.922;9.444;2023-02-15T02:42:54;15.90;;;13.37;;
7517;SDS011;3800;48.922;9.444;2023-02-15T02:45:22;19.40;;;15.07;;
7517;SDS011;3800;48.922;9.444;2023-02-15T02:48:03;20.13;;;16.07;;
7517;SDS011;3800;48.922;9.444;2023-02-15T02:50:32;16.43;;;14.57;;
7517;SDS011;3800;48.922;9.444;2023-02-15T02:53:00;17.93;;;14.97;;
7517;SDS011;3800;48.922;9.444;2023-02-15T02:55:33;17.03;;;15.00;;
7517;SDS011;3800;48.922;9.444;2023-02-15T02:58:11;18.47;;;15.43;;
7517;SDS011;3800;48.922;9.444;2023-02-15T03:00:44;20.50;;;15.73;;
7517;SDS011;3800;48.922;9.444;2023-02-15T03:03:12;18.97;;;15.20;;
7517;SDS011;3800;48.922;9.444;2023-02-15T03:05:40;20.80;;;15.33;;
7517;SDS011;3800;48.922;9.444;2023-02-15T03:08:07;17.37;;;14.27;;
7517;SDS011;3800;48.922;9.444;2023-02-15T03:10:34;20.30;;;15.40;;
7517;SDS011;3800;48.922;9.444;2023-02-15T03:13:02;18.77;;;14.93;;
7517;SDS011;3800;48.922;9.444;2023-02-15T03:15:30;21.60;;;16.00;;
7517;SDS011;3800;48.922;9.444;2023-02-15T03:17:58;22.03;;;16.40;;
7517;SDS011;3800;48.922;9.444;2023-02-15T03:20:30;19.90;;;15.03;;
7517;SDS011;3800;48.922;9.444;2023-02-15T03:22:58;20.57;;;15.10;;
7517;SDS011;3800;48.922;9.444;2023-02-15T03:25:26;19.93;;;14.53;;
7517;SDS011;3800;48.922;9.444;2023-02-15T03:27:54;19.40;;;15.17;;
7517;SDS011;3800;48.922;9.444;2023-02-15T03:30:21;20.87;;;15.70;;
7517;SDS011;3800;48.922;9.444;2023-02-15T03:32:49;18.87;;;15.13;;
7517;SDS011;3800;48.922;9.444;2023-02-15T03:35:17;17.77;;;13.97;;
7517;SDS011;3800;48.922;9.444;2023-02-15T03:37:47;19.57;;;14.77;;
7517;SDS011;3800;48.922;9.444;2023-02-15T03:40:18;19.80;;;15.80;;
7517;SDS011;3800;48.922;9.444;2023-02-15T03:42:59;19.43;;;14.73;;
7517;SDS011;3800;48.922;9.444;2023-02-15T03:45:28;20.57;;;15.27;;
7517;SDS011;3800;48.922;9.444;2023-02-15T03:47:55;19.53;;;14.97;;
7517;SDS011;3800;48.922;9.444;2023-02-15T03:50:24;18.03;;;14.67;;
7517;SDS011;3800;48.922;9.444;2023-02-15T03:52:58;21.87;;;16.00;;
7517;SDS011;3800;48.922;9.444;2023-02-15T03:55:25;19.17;;;15.47;;
7517;SDS011;3800;48.922;9.444;2023-02-15T03:57:53;23.57;;;16.00;;
7517;SDS011;3800;48.922;9.444;2023-02-15T04:00:26;20.03;;;15.60;;
7517;SDS011;3800;48.922;9.444;2023-02-15T04:05:33;19.97;;;14.93;;
7517;SDS011;3800;48.922;9.444;2023-02-15T04:08:01;19.87;;;15.17;;
7517;SDS011;3800;48.922;9.444;2023-02-15T04:10:30;18.87;;;15.03;;
7517;SDS011;3800;48.922;9.444;2023-02-15T04:13:03;18.33;;;14.77;;
7517;SDS011;3800;48.922;9.444;2023-02-15T04:15:31;19.37;;;15.60;;
7517;SDS011;3800;48.922;9.444;2023-02-15T04:18:05;21.20;;;16.03;;
7517;SDS011;3800;48.922;9.444;2023-02-15T04:20:32;23.17;;;16.43;;
7517;SDS011;3800;48.922;9.444;2023-02-15T04:23:06;19.30;;;15.27;;
7517;SDS011;3800;48.922;9.444;2023-02-15T04:25:39;17.97;;;14.67;;
7517;SDS011;3800;48.922;9.444;2023-02-15T04:28:06;16.10;;;13.77;;
7517;SDS011;3800;48.922;9.444;2023-02-15T04:30:34;18.40;;;14.50;;
7517;SDS011;3800;48.922;9.444;2023-02-15T04:33:02;17.67;;;13.83;;
7517;SDS011;3800;48.922;9.444;2023-02-15T04:35:30;20.63;;;14.67;;
7517;SDS011;3800;48.922;9.444;2023-02-15T04:37:58;16.97;;;14.07;;
7517;SDS011;3800;48.922;9.444;2023-02-15T04:40:26;19.97;;;15.57;;
7517;SDS011;3800;48.922;9.444;2023-02-15T04:42:54;18.97;;;14.60;;
7517;SDS011;3800;48.922;9.444;2023-02-15T04:45:21;21.03;;;15.43;;
7517;SDS011;3800;48.922;9.444;2023-02-15T04:47:49;20.20;;;14.43;;
7517;SDS011;3800;48.922;9.444;2023-02-15T04:50:17;20.83;;;16.27;;
7517;SDS011;3800;48.922;9.444;2023-02-15T04:52:44;21.40;;;15.63;;
7517;SDS011;3800;48.922;9.444;2023-02-15T04:55:12;18.03;;;13.77;;
7517;SDS011;3800;48.922;9.444;2023-02-15T04:57:41;19.60;;;14.87;;
7517;SDS011;3800;48.922;9.444;2023-02-15T05:00:11;18.53;;;14.80;;
7517;SDS011;3800;48.922;9.444;2023-02-15T05:02:40;24.00;;;17.20;;
7517;SDS011;3800;48.922;9.444;2023-02-15T05:05:07;21.13;;;15.23;;
7517;SDS011;3800;48.922;9.444;2023-02-15T05:07:35;23.13;;;16.47;;
7517;SDS011;3800;48.922;9.444;2023-02-15T05:10:04;21.03;;;15.97;;
7517;SDS011;3800;48.922;9.444;2023-02-15T05:12:32;22.10;;;15.70;;
7517;SDS011;3800;48.922;9.444;2023-02-15T05:15:04;20.13;;;15.13;;
7517;SDS011;3800;48.922;9.444;2023-02-15T05:17:32;21.27;;;15.30;;
7517;SDS011;3800;48.922;9.444;2023-02-15T05:20:00;17.93;;;13.83;;
7517;SDS011;3800;48.922;9.444;2023-02-15T05:22:27;19.70;;;14.67;;
7517;SDS011;3800;48.922;9.444;2023-02-15T05:24:58;21.50;;;15.17;;
7517;SDS011;3800;48.922;9.444;2023-02-15T05:27:31;18.50;;;15.60;;
7517;SDS011;3800;48.922;9.444;2023-02-15T05:30:05;20.00;;;14.73;;
7517;SDS011;3800;48.922;9.444;2023-02-15T05:32:34;17.60;;;14.30;;
7517;SDS011;3800;48.922;9.444;2023-02-15T05:35:02;17.07;;;14.43;;
7517;SDS011;3800;48.922;9.444;2023-02-15T05:37:31;18.77;;;13.73;;
7517;SDS011;3800;48.922;9.444;2023-02-15T05:39:59;20.73;;;14.90;;
7517;SDS011;3800;48.922;9.444;2023-02-15T05:42:26;20.33;;;15.23;;
7517;SDS011;3800;48.922;9.444;2023-02-15T05:44:54;21.03;;;14.53;;
7517;SDS011;3800;48.922;9.444;2023-02-15T05:47:24;18.63;;;14.67;;
7517;SDS011;3800;48.922;9.444;2023-02-15T05:49:52;22.37;;;15.70;;
7517;SDS011;3800;48.922;9.444;2023-02-15T05:52:19;21.53;;;16.20;;
7517;SDS011;3800;48.922;9.444;2023-02-15T05:54:47;17.37;;;14.40;;
7517;SDS011;3800;48.922;9.444;2023-02-15T05:57:15;19.17;;;14.53;;
7517;SDS011;3800;48.922;9.444;2023-02-15T05:59:43;19.77;;;15.10;;
7517;SDS011;3800;48.922;9.444;2023-02-15T06:02:11;17.13;;;13.80;;
7517;SDS011;3800;48.922;9.444;2023-02-15T06:04:39;18.40;;;13.80;;
7517;SDS011;3800;48.922;9.444;2023-02-15T06:07:07;18.50;;;13.97;;
7517;SDS011;3800;48.922;9.444;2023-02-15T06:09:35;20.47;;;15.33;;
7517;SDS011;3800;48.922;9.444;2023-02-15T06:12:04;18.03;;;14.83;;
7517;SDS011;3800;48.922;9.444;2023-02-15T06:14:32;16.87;;;14.10;;
7517;SDS011;3800;48.922;9.444;2023-02-15T06:17:01;18.93;;;14.67;;
7517;SDS011;3800;48.922;9.444;2023-02-15T06:19:29;18.63;;;14.13;;
7517;SDS011;3800;48.922;9.444;2023-02-15T06:21:57;20.87;;;15.57;;
7517;SDS011;3800;48.922;9.444;2023-02-15T06:24:24;20.90;;;14.97;;
7517;SDS011;3800;48.922;9.444;2023-02-15T06:26:52;21.23;;;14.13;;
7517;SDS011;3800;48.922;9.444;2023-02-15T06:29:20;19.70;;;14.50;;
7517;SDS011;3800;48.922;9.444;2023-02-15T06:31:48;17.93;;;14.77;;
7517;SDS011;3800;48.922;9.444;2023-02-15T06:34:16;21.30;;;14.57;;
7517;SDS011;3800;48.922;9.444;2023-02-15T06:36:44;20.13;;;14.20;;
7517;SDS011;3800;48.922;9.444;2023-02-15T06:39:12;18.33;;;14.37;;
7517;SDS011;3800;48.922;9.444;2023-02-15T06:41:40;19.00;;;13.67;;
7517;SDS011;3800;48.922;9.444;2023-02-15T06:44:09;16.10;;;13.73;;
7517;SDS011;3800;48.922;9.444;2023-02-15T06:46:36;17.30;;;13.23;;
7517;SDS011;3800;48.922;9.444;2023-02-15T06:49:04;17.10;;;13.73;;
7517;SDS011;3800;48.922;9.444;2023-02-15T06:51:32;17.97;;;13.40;;
7517;SDS011;3800;48.922;9.444;2023-02-15T06:53:59;16.93;;;13.77;;
7517;SDS011;3800;48.922;9.444;2023-02-15T06:56:27;19.37;;;14.17;;
7517;SDS011;3800;48.922;9.444;2023-02-15T06:58:55;17.47;;;12.70;;
7517;SDS011;3800;48.922;9.444;2023-02-15T07:01:23;17.03;;;13.33;;
7517;SDS011;3800;48.922;9.444;2023-02-15T07:03:51;17.60;;;13.57;;
7517;SDS011;3800;48.922;9.444;2023-02-15T07:06:19;16.43;;;12.73;;
7517;SDS011;3800;48.922;9.444;2023-02-15T07:08:47;16.57;;;12.50;;
7517;SDS011;3800;48.922;9.444;2023-02-15T07:11:15;16.97;;;13.13;;
7517;SDS011;3800;48.922;9.444;2023-02-15T07:13:49;17.13;;;13.50;;
7517;SDS011;3800;48.922;9.444;2023-02-15T07:16:18;16.97;;;13.43;;
7517;SDS011;3800;48.922;9.444;2023-02-15T07:18:47;18.03;;;14.20;;
7517;SDS011;3800;48.922;9.444;2023-02-15T07:21:16;17.37;;;14.17;;
7517;SDS011;3800;48.922;9.444;2023-02-15T07:23:43;18.50;;;14.40;;
7517;SDS011;3800;48.922;9.444;2023-02-15T07:26:12;19.20;;;15.97;;
7517;SDS011;3800;48.922;9.444;2023-02-15T07:28:39;23.17;;;18.77;;
7517;SDS011;3800;48.922;9.444;2023-02-15T07:31:08;21.40;;;17.03;;
7517;SDS011;3800;48.922;9.444;2023-02-15T07:33:35;21.00;;;16.30;;
7517;SDS011;3800;48.922;9.444;2023-02-15T07:36:03;20.20;;;15.73;;
7517;SDS011;3800;48.922;9.444;2023-02-15T07:38:33;24.07;;;18.03;;
7517;SDS011;3800;48.922;9.444;2023-02-15T07:41:01;23.30;;;18.30;;
7517;SDS011;3800;48.922;9.444;2023-02-15T07:43:29;23.97;;;17.57;;
7517;SDS011;3800;48.922;9.444;2023-02-15T07:45:59;23.50;;;18.07;;
7517;SDS011;3800;48.922;9.444;2023-02-15T07:48:27;26.53;;;18.77;;
7517;SDS011;3800;48.922;9.444;2023-02-15T07:50:58;22.53;;;17.03;;
7517;SDS011;3800;48.922;9.444;2023-02-15T07:53:27;19.77;;;16.13;;
7517;SDS011;3800;48.922;9.444;2023-02-15T07:55:58;20.03;;;14.90;;
7517;SDS011;3800;48.922;9.444;2023-02-15T07:58:26;18.37;;;14.77;;
7517;SDS011;3800;48.922;9.444;2023-02-15T08:00:55;23.27;;;16.40;;
7517;SDS011;3800;48.922;9.444;2023-02-15T08:03:24;20.83;;;16.27;;
7517;SDS011;3800;48.922;9.444;2023-02-15T08:05:56;22.50;;;17.53;;
7517;SDS011;3800;48.922;9.444;2023-02-15T08:08:24;23.00;;;16.60;;
7517;SDS011;3800;48.922;9.444;2023-02-15T08:11:02;21.63;;;16.40;;
7517;SDS011;3800;48.922;9.444;2023-02-15T08:13:34;22.07;;;16.77;;
7517;SDS011;3800;48.922;9.444;2023-02-15T08:16:03;21.13;;;16.00;;
7517;SDS011;3800;48.922;9.444;2023-02-15T08:18:31;20.47;;;16.63;;
7517;SDS011;3800;48.922;9.444;2023-02-15T08:20:59;22.27;;;16.90;;
7517;SDS011;3800;48.922;9.444;2023-02-15T08:23:27;23.50;;;16.57;;
7517;SDS011;3800;48.922;9.444;2023-02-15T08:25:55;24.07;;;17.07;;
7517;SDS011;3800;48.922;9.444;2023-02-15T08:28:22;24.50;;;17.47;;
7517;SDS011;3800;48.922;9.444;2023-02-15T08:30:50;23.37;;;18.03;;
7517;SDS011;3800;48.922;9.444;2023-02-15T08:33:19;25.33;;;17.60;;
7517;SDS011;3800;48.922;9.444;2023-02-15T08:35:46;23.10;;;17.20;;
7517;SDS011;3800;48.922;9.444;2023-02-15T08:38:15;21.33;;;17.03;;
7517;SDS011;3800;48.922;9.444;2023-02-15T08:40:42;23.70;;;17.70;;
7517;SDS011;3800;48.922;9.444;2023-02-15T08:43:10;23.60;;;18.17;;
7517;SDS011;3800;48.922;9.444;2023-02-15T08:45:41;23.07;;;17.87;;
7517;SDS011;3800;48.922;9.444;2023-02-15T08:48:08;22.77;;;17.77;;
7517;SDS011;3800;48.922;9.444;2023-02-15T08:50:36;22.77;;;17.27;;
7517;SDS011;3800;48.922;9.444;2023-02-15T08:53:04;24.63;;;18.40;;
7517;SDS011;3800;48.922;9.444;2023-02-15T08:55:32;21.00;;;17.47;;
7517;SDS011;3800;48.922;9.444;2023-02-15T08:58:00;25.00;;;17.93;;
7517;SDS011;3800;48.922;9.444;2023-02-15T09:00:29;23.60;;;18.27;;
7517;SDS011;3800;48.922;9.444;2023-02-15T09:02:56;26.43;;;19.17;;
7517;SDS011;3800;48.922;9.444;2023-02-15T09:05:25;24.27;;;17.83;;
7517;SDS011;3800;48.922;9.444;2023-02-15T09:07:52;24.67;;;18.37;;
7517;SDS011;3800;48.922;9.444;2023-02-15T09:10:21;24.07;;;17.60;;
7517;SDS011;3800;48.922;9.444;2023-02-15T09:12:50;22.13;;;17.53;;
7517;SDS011;3800;48.922;9.444;2023-02-15T09:15:18;24.80;;;18.50;;
7517;SDS011;3800;48.922;9.444;2023-02-15T09:17:45;22.90;;;17.77;;
7517;SDS011;3800;48.922;9.444;2023-02-15T09:20:14;23.93;;;18.17;;
7517;SDS011;3800;48.922;9.444;2023-02-15T09:22:42;25.07;;;18.40;;
7517;SDS011;3800;48.922;9.444;2023-02-15T09:25:10;26.73;;;19.00;;
7517;SDS011;3800;48.922;9.444;2023-02-15T09:27:38;26.87;;;19.43;;
7517;SDS011;3800;48.922;9.444;2023-02-15T09:30:06;23.70;;;18.37;;
7517;SDS011;3800;48.922;9.444;2023-02-15T09:32:34;25.87;;;19.77;;
7517;SDS011;3800;48.922;9.444;2023-02-15T09:35:04;25.30;;;19.30;;
7517;SDS011;3800;48.922;9.444;2023-02-15T09:37:32;22.10;;;17.93;;
7517;SDS011;3800;48.922;9.444;2023-02-15T09:40:00;25.63;;;19.47;;
7517;SDS011;3800;48.922;9.444;2023-02-15T09:42:36;24.37;;;19.20;;
7517;SDS011;3800;48.922;9.444;2023-02-15T09:45:33;24.37;;;18.33;;
7517;SDS011;3800;48.922;9.444;2023-02-15T09:50:45;27.00;;;20.30;;
7517;SDS011;3800;48.922;9.444;2023-02-15T09:56:44;29.57;;;21.30;;
7517;SDS011;3800;48.922;9.444;2023-02-15T09:59:28;25.03;;;20.27;;
7517;SDS011;3800;48.922;9.444;2023-02-15T10:02:50;29.13;;;21.33;;
7517;SDS011;3800;48.922;9.444;2023-02-15T10:05:08;26.27;;;19.50;;
7517;SDS011;3800;48.922;9.444;2023-02-15T10:07:58;27.73;;;20.90;;
7517;SDS011;3800;48.922;9.444;2023-02-15T10:10:31;29.93;;;23.17;;
7517;SDS011;3800;48.922;9.444;2023-02-15T10:13:22;28.10;;;21.43;;
7517;SDS011;3800;48.922;9.444;2023-02-15T10:15:53;29.57;;;22.40;;
7517;SDS011;3800;48.922;9.444;2023-02-15T10:18:22;30.13;;;22.70;;
7517;SDS011;3800;48.922;9.444;2023-02-15T10:23:59;27.67;;;21.53;;
7517;SDS011;3800;48.922;9.444;2023-02-15T10:26:27;26.60;;;20.97;;
7517;SDS011;3800;48.922;9.444;2023-02-15T10:28:57;28.13;;;21.50;;
7517;SDS011;3800;48.922;9.444;2023-02-15T10:31:47;28.37;;;21.53;;
7517;SDS011;3800;48.922;9.444;2023-02-15T10:34:17;28.33;;;21.83;;
7517;SDS011;3800;48.922;9.444;2023-02-15T10:37:53;27.70;;;21.10;;
7517;SDS011;3800;48.922;9.444;2023-02-15T10:39:33;26.23;;;20.70;;
7517;SDS011;3800;48.922;9.444;2023-02-15T10:42:03;27.83;;;21.33;;
7517;SDS011;3800;48.922;9.444;2023-02-15T10:44:41;27.43;;;21.03;;
7517;SDS011;3800;48.922;9.444;2023-02-15T10:47:22;28.27;;;21.47;;
7517;SDS011;3800;48.922;9.444;2023-02-15T10:53:00;27.27;;;21.57;;
7517;SDS011;3800;48.922;9.444;2023-02-15T10:58:31;28.43;;;22.50;;
7517;SDS011;3800;48.922;9.444;2023-02-15T11:01:08;26.53;;;21.20;;
7517;SDS011;3800;48.922;9.444;2023-02-15T11:03:47;25.13;;;20.37;;
7517;SDS011;3800;48.922;9.444;2023-02-15T11:06:11;24.47;;;20.43;;
7517;SDS011;3800;48.922;9.444;2023-02-15T11:08:42;25.80;;;19.67;;
7517;SDS011;3800;48.922;9.444;2023-02-15T11:11:12;24.87;;;20.93;;
7517;SDS011;3800;48.922;9.444;2023-02-15T11:13:43;23.70;;;19.60;;
7517;SDS011;3800;48.922;9.444;2023-02-15T11:16:13;27.37;;;20.13;;
7517;SDS011;3800;48.922;9.444;2023-02-15T11:18:40;23.07;;;19.13;;
7517;SDS011;3800;48.922;9.444;2023-02-15T11:21:13;27.03;;;19.80;;
7517;SDS011;3800;48.922;9.444;2023-02-15T11:23:42;24.27;;;19.67;;
7517;SDS011;3800;48.922;9.444;2023-02-15T11:26:24;21.83;;;18.70;;
7517;SDS011;3800;48.922;9.444;2023-02-15T11:28:57;21.73;;;18.53;;
7517;SDS011;3800;48.922;9.444;2023-02-15T11:31:25;23.97;;;17.77;;
7517;SDS011;3800;48.922;9.444;2023-02-15T11:33:55;24.47;;;18.17;;
7517;SDS011;3800;48.922;9.444;2023-02-15T11:36:24;19.40;;;16.27;;
7517;SDS011;3800;48.922;9.444;2023-02-15T11:38:51;20.07;;;16.60;;
7517;SDS011;3800;48.922;9.444;2023-02-15T11:41:20;19.70;;;15.50;;
7517;SDS011;3800;48.922;9.444;2023-02-15T11:43:51;20.47;;;16.07;;
7517;SDS011;3800;48.922;9.444;2023-02-15T11:46:19;20.53;;;16.60;;
7517;SDS011;3800;48.922;9.444;2023-02-15T11:48:47;19.73;;;16.40;;
7517;SDS011;3800;48.922;9.444;2023-02-15T11:51:16;19.63;;;16.20;;
7517;SDS011;3800;48.922;9.444;2023-02-15T11:53:43;23.03;;;16.63;;
7517;SDS011;3800;48.922;9.444;2023-02-15T11:56:16;19.17;;;16.50;;
7517;SDS011;3800;48.922;9.444;2023-02-15T11:58:50;19.47;;;15.53;;
7517;SDS011;3800;48.922;9.444;2023-02-15T12:06:46;20.17;;;15.40;;
7517;SDS011;3800;48.922;9.444;2023-02-15T12:15:10;20.67;;;15.57;;
7517;SDS011;3800;48.922;9.444;2023-02-15T12:17:24;18.40;;;14.77;;
7517;SDS011;3800;48.922;9.444;2023-02-15T12:19:52;19.37;;;15.83;;
7517;SDS011;3800;48.922;9.444;2023-02-15T12:22:23;21.33;;;15.77;;
7517;SDS011;3800;48.922;9.444;2023-02-15T12:24:52;19.03;;;16.33;;
7517;SDS011;3800;48.922;9.444;2023-02-15T12:27:22;18.87;;;15.43;;
7517;SDS011;3800;48.922;9.444;2023-02-15T12:29:51;18.87;;;15.00;;
7517;SDS011;3800;48.922;9.444;2023-02-15T12:32:22;21.63;;;15.83;;
7517;SDS011;3800;48.922;9.444;2023-02-15T12:34:50;21.37;;;15.33;;
7517;SDS011;3800;48.922;9.444;2023-02-15T12:37:23;17.43;;;13.97;;
7517;SDS011;3800;48.922;9.444;2023-02-15T12:39:53;16.07;;;14.13;;
7517;SDS011;3800;48.922;9.444;2023-02-15T12:42:22;17.13;;;14.67;;
7517;SDS011;3800;48.922;9.444;2023-02-15T12:44:56;18.07;;;14.97;;
7517;SDS011;3800;48.922;9.444;2023-02-15T12:47:27;16.87;;;14.17;;
7517;SDS011;3800;48.922;9.444;2023-02-15T12:52:35;16.13;;;13.93;;
7517;SDS011;3800;48.922;9.444;2023-02-15T12:55:11;17.20;;;13.93;;
7517;SDS011;3800;48.922;9.444;2023-02-15T12:57:37;16.53;;;13.43;;
7517;SDS011;3800;48.922;9.444;2023-02-15T13:00:11;20.63;;;13.63;;
7517;SDS011;3800;48.922;9.444;2023-02-15T13:02:47;15.57;;;13.30;;
7517;SDS011;3800;48.922;9.444;2023-02-15T13:05:18;15.83;;;13.67;;
7517;SDS011;3800;48.922;9.444;2023-02-15T13:07:45;18.57;;;14.27;;
7517;SDS011;3800;48.922;9.444;2023-02-15T13:10:21;15.17;;;13.20;;
7517;SDS011;3800;48.922;9.444;2023-02-15T13:12:51;15.23;;;12.97;;
7517;SDS011;3800;48.922;9.444;2023-02-15T13:15:25;15.50;;;13.60;;
7517;SDS011;3800;48.922;9.444;2023-02-15T13:17:52;16.33;;;13.47;;
7517;SDS011;3800;48.922;9.444;2023-02-15T13:20:21;20.17;;;14.13;;
7517;SDS011;3800;48.922;9.444;2023-02-15T13:22:50;16.20;;;13.90;;
7517;SDS011;3800;48.922;9.444;2023-02-15T13:25:19;16.27;;;13.83;;
7517;SDS011;3800;48.922;9.444;2023-02-15T13:27:48;20.43;;;13.57;;
7517;SDS011;3800;48.922;9.444;2023-02-15T13:30:20;18.03;;;14.40;;
7517;SDS011;3800;48.922;9.444;2023-02-15T13:32:45;17.27;;;14.27;;
7517;SDS011;3800;48.922;9.444;2023-02-15T13:35:14;15.57;;;13.67;;
7517;SDS011;3800;48.922;9.444;2023-02-15T13:37:45;15.67;;;13.93;;
7517;SDS011;3800;48.922;9.444;2023-02-15T13:40:33;13.87;;;12.47;;
7517;SDS011;3800;48.922;9.444;2023-02-15T13:43:05;14.37;;;12.80;;
7517;SDS011;3800;48.922;9.444;2023-02-15T13:46:07;15.60;;;13.03;;
7517;SDS011;3800;48.922;9.444;2023-02-15T13:48:40;15.80;;;13.47;;
7517;SDS011;3800;48.922;9.444;2023-02-15T13:51:52;15.70;;;12.97;;
7517;SDS011;3800;48.922;9.444;2023-02-15T13:54:12;14.87;;;13.27;;
7517;SDS011;3800;48.922;9.444;2023-02-15T13:56:41;14.20;;;12.70;;
7517;SDS011;3800;48.922;9.444;2023-02-15T13:59:12;14.20;;;12.13;;
7517;SDS011;3800;48.922;9.444;2023-02-15T14:01:40;15.20;;;12.20;;
7517;SDS011;3800;48.922;9.444;2023-02-15T14:04:19;14.73;;;11.63;;
7517;SDS011;3800;48.922;9.444;2023-02-15T14:09:47;13.03;;;11.57;;
7517;SDS011;3800;48.922;9.444;2023-02-15T14:12:25;16.33;;;11.40;;
7517;SDS011;3800;48.922;9.444;2023-02-15T14:15:42;13.43;;;11.43;;
7517;SDS011;3800;48.922;9.444;2023-02-15T14:17:55;12.03;;;10.23;;
7517;SDS011;3800;48.922;9.444;2023-02-15T14:20:32;13.47;;;10.10;;
7517;SDS011;3800;48.922;9.444;2023-02-15T14:25:36;12.83;;;10.23;;
7517;SDS011;3800;48.922;9.444;2023-02-15T14:28:11;11.93;;;10.73;;
7517;SDS011;3800;48.922;9.444;2023-02-15T14:30:42;12.13;;;10.17;;
7517;SDS011;3800;48.922;9.444;2023-02-15T14:33:29;17.47;;;10.03;;
7517;SDS011;3800;48.922;9.444;2023-02-15T14:36:08;14.30;;;10.50;;
7517;SDS011;3800;48.922;9.444;2023-02-15T14:38:38;14.93;;;11.87;;
7517;SDS011;3800;48.922;9.444;2023-02-15T14:41:06;14.50;;;10.20;;
7517;SDS011;3800;48.922;9.444;2023-02-15T14:43:46;17.53;;;11.40;;
7517;SDS011;3800;48.922;9.444;2023-02-15T14:46:19;13.60;;;10.50;;
7517;SDS011;3800;48.922;9.444;2023-02-15T14:48:54;32.17;;;11.93;;
7517;SDS011;3800;48.922;9.444;2023-02-15T14:54:09;13.47;;;11.77;;
7517;SDS011;3800;48.922;9.444;2023-02-15T14:56:36;14.57;;;11.43;;
7517;SDS011;3800;48.922;9.444;2023-02-15T14:59:12;14.17;;;11.17;;
7517;SDS011;3800;48.922;9.444;2023-02-15T15:04:44;13.20;;;11.67;;
7517;SDS011;3800;48.922;9.444;2023-02-15T15:07:27;15.40;;;12.13;;
7517;SDS011;3800;48.922;9.444;2023-02-15T15:09:58;13.13;;;10.67;;
7517;SDS011;3800;48.922;9.444;2023-02-15T15:12:36;13.23;;;11.40;;
7517;SDS011;3800;48.922;9.444;2023-02-15T15:15:03;13.40;;;10.63;;
7517;SDS011;3800;48.922;9.444;2023-02-15T15:23:43;14.07;;;11.37;;
7517;SDS011;3800;48.922;9.444;2023-02-15T15:28:54;15.93;;;11.37;;
7517;SDS011;3800;48.922;9.444;2023-02-15T15:31:37;12.50;;;10.63;;
7517;SDS011;3800;48.922;9.444;2023-02-15T15:34:17;13.27;;;10.93;;
7517;SDS011;3800;48.922;9.444;2023-02-15T15:36:54;14.53;;;11.97;;
7517;SDS011;3800;48.922;9.444;2023-02-15T15:42:32;16.30;;;12.23;;
7517;SDS011;3800;48.922;9.444;2023-02-15T15:45:21;16.90;;;11.57;;
7517;SDS011;3800;48.922;9.444;2023-02-15T15:47:49;12.17;;;10.87;;
7517;SDS011;3800;48.922;9.444;2023-02-15T15:50:14;18.87;;;11.63;;
7517;SDS011;3800;48.922;9.444;2023-02-15T15:52:46;16.93;;;11.83;;
7517;SDS011;3800;48.922;9.444;2023-02-15T15:55:15;13.93;;;11.53;;
7517;SDS011;3800;48.922;9.444;2023-02-15T15:57:43;16.03;;;12.17;;
7517;SDS011;3800;48.922;9.444;2023-02-15T16:02:49;15.20;;;11.87;;
7517;SDS011;3800;48.922;9.444;2023-02-15T16:05:16;16.27;;;11.97;;
7517;SDS011;3800;48.922;9.444;2023-02-15T16:07:44;14.03;;;12.13;;
7517;SDS011;3800;48.922;9.444;2023-02-15T16:10:32;15.17;;;12.90;;
7517;SDS011;3800;48.922;9.444;2023-02-15T16:13:00;16.50;;;12.87;;